sensor_id;sensor_type;location;lat;lon;timestamp;P1;durP1;ratioP1;P2;durP2;ratioP2
47894;SDS011;33653;52.302;8.134;2023-04-16T00:01:00;23.92;;;13.68;;
47894;SDS011;33653;52.302;8.134;2023-04-16T00:03:29;28.55;;;16.75;;
47894;SDS011;33653;52.302;8.134;2023-04-16T00:05:57;27.38;;;15.73;;
47894;SDS011;33653;52.302;8.134;2023-04-16T00:08:26;35.13;;;17.00;;
47894;SDS011;33653;52.302;8.134;2023-04-16T00:10:54;29.98;;;16.98;;
47894;SDS011;33653;52.302;8.134;2023-04-16T00:13:24;32.53;;;15.85;;
47894;SDS011;33653;52.302;8.134;2023-04-16T00:15:53;30.98;;;15.63;;
47894;SDS011;33653;52.302;8.134;2023-04-16T00:18:22;30.63;;;15.40;;
47894;SDS011;33653;52.302;8.134;2023-04-16T00:20:50;24.65;;;15.07;;
47894;SDS011;33653;52.302;8.134;2023-04-16T00:23:19;26.17;;;14.82;;
47894;SDS011;33653;52.302;8.134;2023-04-16T00:25:47;29.15;;;15.02;;
47894;SDS011;33653;52.302;8.134;2023-04-16T00:28:15;31.02;;;16.05;;
47894;SDS011;33653;52.302;8.134;2023-04-16T00:30:44;30.33;;;16.85;;
47894;SDS011;33653;52.302;8.134;2023-04-16T00:33:12;23.63;;;15.23;;
47894;SDS011;33653;52.302;8.134;2023-04-16T00:38:14;23.52;;;13.95;;
47894;SDS011;33653;52.302;8.134;2023-04-16T00:40:43;24.92;;;16.00;;
47894;SDS011;33653;52.302;8.134;2023-04-16T00:43:19;27.42;;;15.68;;
47894;SDS011;33653;52.302;8.134;2023-04-16T00:45:49;25.20;;;13.68;;
47894;SDS011;33653;52.302;8.134;2023-04-16T00:48:19;26.23;;;16.67;;
47894;SDS011;33653;52.302;8.134;2023-04-16T00:50:47;28.33;;;15.27;;
47894;SDS011;33653;52.302;8.134;2023-04-16T00:53:15;26.85;;;13.98;;
47894;SDS011;33653;52.302;8.134;2023-04-16T00:55:44;32.50;;;14.98;;
47894;SDS011;33653;52.302;8.134;2023-04-16T00:58:12;25.42;;;14.40;;
47894;SDS011;33653;52.302;8.134;2023-04-16T01:00:40;23.42;;;13.35;;
47894;SDS011;33653;52.302;8.134;2023-04-16T01:03:09;25.67;;;15.57;;
47894;SDS011;33653;52.302;8.134;2023-04-16T01:05:37;26.10;;;14.55;;
47894;SDS011;33653;52.302;8.134;2023-04-16T01:08:06;23.50;;;13.60;;
47894;SDS011;33653;52.302;8.134;2023-04-16T01:10:44;28.63;;;15.00;;
47894;SDS011;33653;52.302;8.134;2023-04-16T01:13:12;25.63;;;14.82;;
47894;SDS011;33653;52.302;8.134;2023-04-16T01:15:41;35.85;;;15.20;;
47894;SDS011;33653;52.302;8.134;2023-04-16T01:18:16;28.70;;;14.88;;
47894;SDS011;33653;52.302;8.134;2023-04-16T01:20:47;27.63;;;16.15;;
47894;SDS011;33653;52.302;8.134;2023-04-16T01:23:17;28.67;;;17.00;;
47894;SDS011;33653;52.302;8.134;2023-04-16T01:25:46;32.33;;;16.77;;
47894;SDS011;33653;52.302;8.134;2023-04-16T01:28:14;27.20;;;14.50;;
47894;SDS011;33653;52.302;8.134;2023-04-16T01:30:42;30.13;;;16.40;;
47894;SDS011;33653;52.302;8.134;2023-04-16T01:33:19;30.35;;;16.73;;
47894;SDS011;33653;52.302;8.134;2023-04-16T01:35:50;27.70;;;16.02;;
47894;SDS011;33653;52.302;8.134;2023-04-16T01:38:18;29.20;;;16.25;;
47894;SDS011;33653;52.302;8.134;2023-04-16T01:40:46;29.85;;;15.13;;
47894;SDS011;33653;52.302;8.134;2023-04-16T01:43:14;33.75;;;16.13;;
47894;SDS011;33653;52.302;8.134;2023-04-16T01:45:42;35.30;;;16.77;;
47894;SDS011;33653;52.302;8.134;2023-04-16T01:48:11;33.22;;;18.00;;
47894;SDS011;33653;52.302;8.134;2023-04-16T01:50:39;30.33;;;17.00;;
47894;SDS011;33653;52.302;8.134;2023-04-16T01:53:08;22.25;;;15.05;;
47894;SDS011;33653;52.302;8.134;2023-04-16T01:55:36;25.92;;;15.88;;
47894;SDS011;33653;52.302;8.134;2023-04-16T01:58:04;25.65;;;15.32;;
47894;SDS011;33653;52.302;8.134;2023-04-16T02:00:39;35.05;;;16.75;;
47894;SDS011;33653;52.302;8.134;2023-04-16T02:03:08;28.63;;;17.25;;
47894;SDS011;33653;52.302;8.134;2023-04-16T02:05:36;25.58;;;16.33;;
47894;SDS011;33653;52.302;8.134;2023-04-16T02:08:04;32.75;;;16.83;;
47894;SDS011;33653;52.302;8.134;2023-04-16T02:10:33;27.13;;;16.98;;
47894;SDS011;33653;52.302;8.134;2023-04-16T02:13:02;33.28;;;17.48;;
47894;SDS011;33653;52.302;8.134;2023-04-16T02:15:30;30.00;;;16.85;;
47894;SDS011;33653;52.302;8.134;2023-04-16T02:17:59;30.65;;;16.20;;
47894;SDS011;33653;52.302;8.134;2023-04-16T02:20:27;27.83;;;16.23;;
47894;SDS011;33653;52.302;8.134;2023-04-16T02:22:59;29.98;;;16.17;;
47894;SDS011;33653;52.302;8.134;2023-04-16T02:25:28;28.63;;;16.73;;
47894;SDS011;33653;52.302;8.134;2023-04-16T02:27:57;30.00;;;16.88;;
47894;SDS011;33653;52.302;8.134;2023-04-16T02:30:34;28.08;;;16.15;;
47894;SDS011;33653;52.302;8.134;2023-04-16T02:33:04;30.67;;;16.80;;
47894;SDS011;33653;52.302;8.134;2023-04-16T02:35:36;29.45;;;16.67;;
47894;SDS011;33653;52.302;8.134;2023-04-16T02:38:05;30.70;;;17.65;;
47894;SDS011;33653;52.302;8.134;2023-04-16T02:40:35;24.83;;;16.70;;
47894;SDS011;33653;52.302;8.134;2023-04-16T02:43:03;34.15;;;16.73;;
47894;SDS011;33653;52.302;8.134;2023-04-16T02:45:32;27.92;;;15.85;;
47894;SDS011;33653;52.302;8.134;2023-04-16T02:48:00;27.77;;;16.40;;
47894;SDS011;33653;52.302;8.134;2023-04-16T02:50:28;27.40;;;15.38;;
47894;SDS011;33653;52.302;8.134;2023-04-16T02:52:57;33.22;;;16.35;;
47894;SDS011;33653;52.302;8.134;2023-04-16T02:55:25;31.92;;;17.38;;
47894;SDS011;33653;52.302;8.134;2023-04-16T02:57:55;31.52;;;17.00;;
47894;SDS011;33653;52.302;8.134;2023-04-16T03:00:23;29.83;;;18.70;;
47894;SDS011;33653;52.302;8.134;2023-04-16T03:02:52;28.73;;;17.23;;
47894;SDS011;33653;52.302;8.134;2023-04-16T03:05:20;37.78;;;18.55;;
47894;SDS011;33653;52.302;8.134;2023-04-16T03:07:50;30.40;;;17.38;;
47894;SDS011;33653;52.302;8.134;2023-04-16T03:10:23;27.10;;;17.33;;
47894;SDS011;33653;52.302;8.134;2023-04-16T03:12:51;36.30;;;18.05;;
47894;SDS011;33653;52.302;8.134;2023-04-16T03:15:19;32.67;;;16.60;;
47894;SDS011;33653;52.302;8.134;2023-04-16T03:17:48;35.40;;;16.55;;
47894;SDS011;33653;52.302;8.134;2023-04-16T03:20:16;27.95;;;17.40;;
47894;SDS011;33653;52.302;8.134;2023-04-16T03:22:46;33.22;;;17.50;;
47894;SDS011;33653;52.302;8.134;2023-04-16T03:25:14;30.40;;;18.17;;
47894;SDS011;33653;52.302;8.134;2023-04-16T03:27:43;34.25;;;18.13;;
47894;SDS011;33653;52.302;8.134;2023-04-16T03:30:13;28.33;;;16.95;;
47894;SDS011;33653;52.302;8.134;2023-04-16T03:32:42;31.55;;;18.25;;
47894;SDS011;33653;52.302;8.134;2023-04-16T03:35:11;28.95;;;16.52;;
47894;SDS011;33653;52.302;8.134;2023-04-16T03:37:39;30.60;;;18.42;;
47894;SDS011;33653;52.302;8.134;2023-04-16T03:40:07;32.03;;;17.65;;
47894;SDS011;33653;52.302;8.134;2023-04-16T03:42:36;33.85;;;17.70;;
47894;SDS011;33653;52.302;8.134;2023-04-16T03:45:05;28.67;;;17.73;;
47894;SDS011;33653;52.302;8.134;2023-04-16T03:47:37;29.15;;;17.15;;
47894;SDS011;33653;52.302;8.134;2023-04-16T03:50:06;29.95;;;17.77;;
47894;SDS011;33653;52.302;8.134;2023-04-16T03:52:35;35.00;;;17.23;;
47894;SDS011;33653;52.302;8.134;2023-04-16T03:55:04;28.70;;;16.42;;
47894;SDS011;33653;52.302;8.134;2023-04-16T03:57:33;38.53;;;18.88;;
47894;SDS011;33653;52.302;8.134;2023-04-16T04:00:07;31.33;;;17.77;;
47894;SDS011;33653;52.302;8.134;2023-04-16T04:02:53;39.13;;;18.90;;
47894;SDS011;33653;52.302;8.134;2023-04-16T04:05:22;31.13;;;17.90;;
47894;SDS011;33653;52.302;8.134;2023-04-16T04:07:51;34.75;;;17.67;;
47894;SDS011;33653;52.302;8.134;2023-04-16T04:10:20;29.70;;;16.45;;
47894;SDS011;33653;52.302;8.134;2023-04-16T04:12:48;34.60;;;18.85;;
47894;SDS011;33653;52.302;8.134;2023-04-16T04:15:16;29.20;;;17.25;;
47894;SDS011;33653;52.302;8.134;2023-04-16T04:17:45;29.70;;;17.25;;
47894;SDS011;33653;52.302;8.134;2023-04-16T04:20:13;30.95;;;17.52;;
47894;SDS011;33653;52.302;8.134;2023-04-16T04:22:44;33.80;;;17.17;;
47894;SDS011;33653;52.302;8.134;2023-04-16T04:25:13;31.90;;;18.48;;
47894;SDS011;33653;52.302;8.134;2023-04-16T04:27:42;36.10;;;18.52;;
47894;SDS011;33653;52.302;8.134;2023-04-16T04:30:10;34.45;;;19.70;;
47894;SDS011;33653;52.302;8.134;2023-04-16T04:32:40;35.40;;;19.75;;
47894;SDS011;33653;52.302;8.134;2023-04-16T04:35:09;30.80;;;19.10;;
47894;SDS011;33653;52.302;8.134;2023-04-16T04:37:37;32.28;;;18.98;;
47894;SDS011;33653;52.302;8.134;2023-04-16T04:40:13;34.13;;;18.23;;
47894;SDS011;33653;52.302;8.134;2023-04-16T04:42:42;35.65;;;19.05;;
47894;SDS011;33653;52.302;8.134;2023-04-16T04:45:11;29.23;;;16.65;;
47894;SDS011;33653;52.302;8.134;2023-04-16T04:47:40;32.33;;;18.25;;
47894;SDS011;33653;52.302;8.134;2023-04-16T04:50:09;27.52;;;17.40;;
47894;SDS011;33653;52.302;8.134;2023-04-16T04:52:38;32.13;;;17.98;;
47894;SDS011;33653;52.302;8.134;2023-04-16T04:55:07;32.78;;;19.30;;
47894;SDS011;33653;52.302;8.134;2023-04-16T04:57:35;33.60;;;17.83;;
47894;SDS011;33653;52.302;8.134;2023-04-16T05:00:05;34.97;;;19.90;;
47894;SDS011;33653;52.302;8.134;2023-04-16T05:02:42;30.25;;;19.58;;
47894;SDS011;33653;52.302;8.134;2023-04-16T05:05:11;29.73;;;17.52;;
47894;SDS011;33653;52.302;8.134;2023-04-16T05:07:39;35.10;;;17.77;;
47894;SDS011;33653;52.302;8.134;2023-04-16T05:10:08;30.20;;;18.55;;
47894;SDS011;33653;52.302;8.134;2023-04-16T05:12:36;33.17;;;19.38;;
47894;SDS011;33653;52.302;8.134;2023-04-16T05:15:06;34.40;;;20.30;;
47894;SDS011;33653;52.302;8.134;2023-04-16T05:17:35;40.33;;;18.75;;
47894;SDS011;33653;52.302;8.134;2023-04-16T05:20:03;31.50;;;18.55;;
47894;SDS011;33653;52.302;8.134;2023-04-16T05:22:33;33.70;;;18.23;;
47894;SDS011;33653;52.302;8.134;2023-04-16T05:25:02;28.92;;;17.63;;
47894;SDS011;33653;52.302;8.134;2023-04-16T05:27:30;30.88;;;16.92;;
47894;SDS011;33653;52.302;8.134;2023-04-16T05:29:58;31.65;;;18.30;;
47894;SDS011;33653;52.302;8.134;2023-04-16T05:32:27;33.78;;;18.60;;
47894;SDS011;33653;52.302;8.134;2023-04-16T05:34:55;31.88;;;17.98;;
47894;SDS011;33653;52.302;8.134;2023-04-16T05:37:23;32.90;;;18.58;;
47894;SDS011;33653;52.302;8.134;2023-04-16T05:39:52;35.70;;;18.00;;
47894;SDS011;33653;52.302;8.134;2023-04-16T05:42:20;28.20;;;16.55;;
47894;SDS011;33653;52.302;8.134;2023-04-16T05:44:49;35.75;;;18.48;;
47894;SDS011;33653;52.302;8.134;2023-04-16T05:47:18;38.65;;;19.45;;
47894;SDS011;33653;52.302;8.134;2023-04-16T05:49:47;32.10;;;17.85;;
47894;SDS011;33653;52.302;8.134;2023-04-16T05:52:15;30.55;;;17.30;;
47894;SDS011;33653;52.302;8.134;2023-04-16T05:54:46;33.00;;;17.83;;
47894;SDS011;33653;52.302;8.134;2023-04-16T05:57:14;30.25;;;17.67;;
47894;SDS011;33653;52.302;8.134;2023-04-16T05:59:42;32.55;;;19.05;;
47894;SDS011;33653;52.302;8.134;2023-04-16T06:02:11;29.48;;;18.23;;
47894;SDS011;33653;52.302;8.134;2023-04-16T06:04:39;32.88;;;16.67;;
47894;SDS011;33653;52.302;8.134;2023-04-16T06:07:08;26.58;;;17.15;;
47894;SDS011;33653;52.302;8.134;2023-04-16T06:09:37;39.72;;;18.90;;
47894;SDS011;33653;52.302;8.134;2023-04-16T06:12:05;33.05;;;19.50;;
47894;SDS011;33653;52.302;8.134;2023-04-16T06:14:33;30.13;;;18.88;;
47894;SDS011;33653;52.302;8.134;2023-04-16T06:17:05;31.45;;;18.42;;
47894;SDS011;33653;52.302;8.134;2023-04-16T06:19:33;33.50;;;18.25;;
47894;SDS011;33653;52.302;8.134;2023-04-16T06:22:02;32.10;;;17.75;;
47894;SDS011;33653;52.302;8.134;2023-04-16T06:24:32;34.85;;;18.05;;
47894;SDS011;33653;52.302;8.134;2023-04-16T06:27:00;28.80;;;18.13;;
47894;SDS011;33653;52.302;8.134;2023-04-16T06:29:29;29.08;;;17.15;;
47894;SDS011;33653;52.302;8.134;2023-04-16T06:32:08;27.27;;;16.55;;
47894;SDS011;33653;52.302;8.134;2023-04-16T06:34:37;27.05;;;16.98;;
47894;SDS011;33653;52.302;8.134;2023-04-16T06:37:05;27.55;;;17.30;;
47894;SDS011;33653;52.302;8.134;2023-04-16T06:39:36;31.80;;;17.58;;
47894;SDS011;33653;52.302;8.134;2023-04-16T06:42:04;34.85;;;19.10;;
47894;SDS011;33653;52.302;8.134;2023-04-16T06:44:34;29.35;;;17.90;;
47894;SDS011;33653;52.302;8.134;2023-04-16T06:47:02;28.65;;;18.58;;
47894;SDS011;33653;52.302;8.134;2023-04-16T06:49:31;26.40;;;16.20;;
47894;SDS011;33653;52.302;8.134;2023-04-16T06:51:59;27.05;;;16.33;;
47894;SDS011;33653;52.302;8.134;2023-04-16T06:54:31;27.67;;;17.27;;
47894;SDS011;33653;52.302;8.134;2023-04-16T06:56:59;29.85;;;17.40;;
47894;SDS011;33653;52.302;8.134;2023-04-16T06:59:27;28.00;;;17.05;;
47894;SDS011;33653;52.302;8.134;2023-04-16T07:01:56;30.52;;;18.23;;
47894;SDS011;33653;52.302;8.134;2023-04-16T07:04:24;31.58;;;18.35;;
47894;SDS011;33653;52.302;8.134;2023-04-16T07:06:54;30.50;;;16.90;;
47894;SDS011;33653;52.302;8.134;2023-04-16T07:09:22;32.08;;;18.30;;
47894;SDS011;33653;52.302;8.134;2023-04-16T07:11:51;29.65;;;17.30;;
47894;SDS011;33653;52.302;8.134;2023-04-16T07:14:20;32.67;;;18.95;;
47894;SDS011;33653;52.302;8.134;2023-04-16T07:16:49;29.55;;;17.27;;
47894;SDS011;33653;52.302;8.134;2023-04-16T07:19:17;28.95;;;18.20;;
47894;SDS011;33653;52.302;8.134;2023-04-16T07:21:47;31.65;;;18.08;;
47894;SDS011;33653;52.302;8.134;2023-04-16T07:24:18;30.63;;;17.50;;
47894;SDS011;33653;52.302;8.134;2023-04-16T07:29:17;30.63;;;16.67;;
47894;SDS011;33653;52.302;8.134;2023-04-16T07:31:46;27.25;;;16.83;;
47894;SDS011;33653;52.302;8.134;2023-04-16T07:34:14;31.95;;;17.83;;
47894;SDS011;33653;52.302;8.134;2023-04-16T07:36:42;29.35;;;17.63;;
47894;SDS011;33653;52.302;8.134;2023-04-16T07:39:10;30.23;;;17.63;;
47894;SDS011;33653;52.302;8.134;2023-04-16T07:41:40;31.20;;;18.10;;
47894;SDS011;33653;52.302;8.134;2023-04-16T07:44:09;26.57;;;16.90;;
47894;SDS011;33653;52.302;8.134;2023-04-16T07:46:37;28.30;;;17.02;;
47894;SDS011;33653;52.302;8.134;2023-04-16T07:49:13;32.83;;;19.20;;
47894;SDS011;33653;52.302;8.134;2023-04-16T07:51:42;37.17;;;19.83;;
47894;SDS011;33653;52.302;8.134;2023-04-16T07:54:10;36.22;;;20.00;;
47894;SDS011;33653;52.302;8.134;2023-04-16T07:56:40;33.08;;;18.42;;
47894;SDS011;33653;52.302;8.134;2023-04-16T07:59:08;27.55;;;18.75;;
47894;SDS011;33653;52.302;8.134;2023-04-16T08:01:49;33.40;;;18.58;;
47894;SDS011;33653;52.302;8.134;2023-04-16T08:04:19;31.80;;;18.48;;
47894;SDS011;33653;52.302;8.134;2023-04-16T08:06:54;29.42;;;19.10;;
47894;SDS011;33653;52.302;8.134;2023-04-16T08:09:45;30.27;;;18.02;;
47894;SDS011;33653;52.302;8.134;2023-04-16T08:12:15;29.15;;;19.08;;
47894;SDS011;33653;52.302;8.134;2023-04-16T08:14:44;26.85;;;17.50;;
47894;SDS011;33653;52.302;8.134;2023-04-16T08:17:13;34.10;;;17.83;;
47894;SDS011;33653;52.302;8.134;2023-04-16T08:19:42;29.33;;;18.02;;
47894;SDS011;33653;52.302;8.134;2023-04-16T08:22:16;30.00;;;17.38;;
47894;SDS011;33653;52.302;8.134;2023-04-16T08:24:45;27.85;;;17.10;;
47894;SDS011;33653;52.302;8.134;2023-04-16T08:27:13;24.67;;;17.50;;
47894;SDS011;33653;52.302;8.134;2023-04-16T08:29:47;26.35;;;15.93;;
47894;SDS011;33653;52.302;8.134;2023-04-16T08:32:16;26.90;;;17.05;;
47894;SDS011;33653;52.302;8.134;2023-04-16T08:34:44;32.42;;;17.70;;
47894;SDS011;33653;52.302;8.134;2023-04-16T08:37:13;27.23;;;18.10;;
47894;SDS011;33653;52.302;8.134;2023-04-16T08:39:41;28.27;;;17.42;;
47894;SDS011;33653;52.302;8.134;2023-04-16T08:42:17;25.67;;;17.10;;
47894;SDS011;33653;52.302;8.134;2023-04-16T08:45:03;27.42;;;17.50;;
47894;SDS011;33653;52.302;8.134;2023-04-16T08:47:46;24.00;;;15.93;;
47894;SDS011;33653;52.302;8.134;2023-04-16T08:50:25;24.50;;;15.68;;
47894;SDS011;33653;52.302;8.134;2023-04-16T08:52:56;24.02;;;15.05;;
47894;SDS011;33653;52.302;8.134;2023-04-16T08:58:33;23.40;;;15.60;;
47894;SDS011;33653;52.302;8.134;2023-04-16T09:01:03;24.27;;;15.48;;
47894;SDS011;33653;52.302;8.134;2023-04-16T09:03:33;25.98;;;15.77;;
47894;SDS011;33653;52.302;8.134;2023-04-16T09:06:03;22.83;;;15.00;;
47894;SDS011;33653;52.302;8.134;2023-04-16T09:08:34;21.98;;;14.35;;
47894;SDS011;33653;52.302;8.134;2023-04-16T09:11:04;23.45;;;15.23;;
47894;SDS011;33653;52.302;8.134;2023-04-16T09:13:36;23.70;;;14.60;;
47894;SDS011;33653;52.302;8.134;2023-04-16T09:16:06;28.05;;;15.60;;
47894;SDS011;33653;52.302;8.134;2023-04-16T09:18:35;21.20;;;13.38;;
47894;SDS011;33653;52.302;8.134;2023-04-16T09:21:03;22.55;;;13.85;;
47894;SDS011;33653;52.302;8.134;2023-04-16T09:23:33;21.05;;;14.10;;
47894;SDS011;33653;52.302;8.134;2023-04-16T09:26:05;20.77;;;13.10;;
47894;SDS011;33653;52.302;8.134;2023-04-16T09:28:44;20.90;;;13.57;;
47894;SDS011;33653;52.302;8.134;2023-04-16T09:31:16;18.38;;;13.13;;
47894;SDS011;33653;52.302;8.134;2023-04-16T09:36:34;19.83;;;13.90;;
47894;SDS011;33653;52.302;8.134;2023-04-16T09:39:03;20.83;;;13.65;;
47894;SDS011;33653;52.302;8.134;2023-04-16T09:41:32;25.33;;;13.98;;
47894;SDS011;33653;52.302;8.134;2023-04-16T09:44:02;21.70;;;13.75;;
47894;SDS011;33653;52.302;8.134;2023-04-16T09:46:39;21.25;;;12.38;;
47894;SDS011;33653;52.302;8.134;2023-04-16T09:49:09;20.75;;;12.60;;
47894;SDS011;33653;52.302;8.134;2023-04-16T09:51:47;19.00;;;12.45;;
47894;SDS011;33653;52.302;8.134;2023-04-16T09:54:19;21.85;;;13.07;;
47894;SDS011;33653;52.302;8.134;2023-04-16T09:56:47;20.08;;;12.13;;
47894;SDS011;33653;52.302;8.134;2023-04-16T09:59:19;21.25;;;12.23;;
47894;SDS011;33653;52.302;8.134;2023-04-16T10:01:50;18.15;;;11.02;;
47894;SDS011;33653;52.302;8.134;2023-04-16T10:04:44;19.77;;;11.45;;
47894;SDS011;33653;52.302;8.134;2023-04-16T10:07:16;18.23;;;12.20;;
47894;SDS011;33653;52.302;8.134;2023-04-16T10:09:45;18.08;;;11.57;;
47894;SDS011;33653;52.302;8.134;2023-04-16T10:12:15;16.30;;;11.85;;
47894;SDS011;33653;52.302;8.134;2023-04-16T10:14:43;18.52;;;11.55;;
47894;SDS011;33653;52.302;8.134;2023-04-16T10:17:13;19.85;;;11.63;;
47894;SDS011;33653;52.302;8.134;2023-04-16T10:19:43;15.75;;;10.85;;
47894;SDS011;33653;52.302;8.134;2023-04-16T10:22:12;20.35;;;11.40;;
47894;SDS011;33653;52.302;8.134;2023-04-16T10:24:42;17.30;;;11.70;;
47894;SDS011;33653;52.302;8.134;2023-04-16T10:27:13;22.70;;;12.50;;
47894;SDS011;33653;52.302;8.134;2023-04-16T10:29:41;18.35;;;11.13;;
47894;SDS011;33653;52.302;8.134;2023-04-16T10:32:09;18.63;;;10.50;;
47894;SDS011;33653;52.302;8.134;2023-04-16T10:34:37;16.38;;;10.40;;
47894;SDS011;33653;52.302;8.134;2023-04-16T10:37:06;16.30;;;10.38;;
47894;SDS011;33653;52.302;8.134;2023-04-16T10:39:34;16.63;;;10.40;;
47894;SDS011;33653;52.302;8.134;2023-04-16T10:42:09;15.75;;;10.02;;
47894;SDS011;33653;52.302;8.134;2023-04-16T10:44:39;19.92;;;10.77;;
47894;SDS011;33653;52.302;8.134;2023-04-16T10:47:12;17.20;;;10.52;;
47894;SDS011;33653;52.302;8.134;2023-04-16T10:49:40;19.20;;;11.20;;
47894;SDS011;33653;52.302;8.134;2023-04-16T10:52:14;17.60;;;10.18;;
47894;SDS011;33653;52.302;8.134;2023-04-16T10:54:43;16.50;;;10.23;;
47894;SDS011;33653;52.302;8.134;2023-04-16T10:57:17;15.18;;;10.35;;
47894;SDS011;33653;52.302;8.134;2023-04-16T10:59:47;13.93;;;9.18;;
47894;SDS011;33653;52.302;8.134;2023-04-16T11:02:16;14.43;;;9.25;;
47894;SDS011;33653;52.302;8.134;2023-04-16T11:04:51;14.00;;;9.07;;
47894;SDS011;33653;52.302;8.134;2023-04-16T11:07:33;13.68;;;8.77;;
47894;SDS011;33653;52.302;8.134;2023-04-16T11:10:05;17.08;;;8.95;;
47894;SDS011;33653;52.302;8.134;2023-04-16T11:12:35;13.40;;;9.13;;
47894;SDS011;33653;52.302;8.134;2023-04-16T11:15:15;17.63;;;9.93;;
47894;SDS011;33653;52.302;8.134;2023-04-16T11:17:46;13.45;;;8.80;;
47894;SDS011;33653;52.302;8.134;2023-04-16T11:20:19;18.52;;;10.40;;
47894;SDS011;33653;52.302;8.134;2023-04-16T11:22:51;14.00;;;9.20;;
47894;SDS011;33653;52.302;8.134;2023-04-16T11:25:29;15.18;;;8.65;;
47894;SDS011;33653;52.302;8.134;2023-04-16T11:28:00;16.02;;;9.38;;
47894;SDS011;33653;52.302;8.134;2023-04-16T11:33:10;14.20;;;8.90;;
47894;SDS011;33653;52.302;8.134;2023-04-16T11:35:40;15.48;;;8.82;;
47894;SDS011;33653;52.302;8.134;2023-04-16T11:38:09;12.93;;;8.63;;
47894;SDS011;33653;52.302;8.134;2023-04-16T11:40:37;12.95;;;8.98;;
47894;SDS011;33653;52.302;8.134;2023-04-16T11:43:14;17.25;;;10.23;;
47894;SDS011;33653;52.302;8.134;2023-04-16T11:45:59;11.93;;;7.97;;
47894;SDS011;33653;52.302;8.134;2023-04-16T11:48:52;11.65;;;7.88;;
47894;SDS011;33653;52.302;8.134;2023-04-16T11:51:22;14.13;;;7.90;;
47894;SDS011;33653;52.302;8.134;2023-04-16T11:53:51;16.58;;;8.77;;
47894;SDS011;33653;52.302;8.134;2023-04-16T11:56:27;18.55;;;9.90;;
47894;SDS011;33653;52.302;8.134;2023-04-16T11:59:06;13.57;;;8.80;;
47894;SDS011;33653;52.302;8.134;2023-04-16T12:01:41;12.60;;;8.88;;
47894;SDS011;33653;52.302;8.134;2023-04-16T12:04:18;13.05;;;8.43;;
47894;SDS011;33653;52.302;8.134;2023-04-16T12:09:40;16.10;;;8.70;;
47894;SDS011;33653;52.302;8.134;2023-04-16T12:12:29;12.97;;;8.40;;
47894;SDS011;33653;52.302;8.134;2023-04-16T12:14:59;14.75;;;9.20;;
47894;SDS011;33653;52.302;8.134;2023-04-16T12:17:31;13.25;;;9.05;;
47894;SDS011;33653;52.302;8.134;2023-04-16T12:20:07;11.45;;;7.93;;
47894;SDS011;33653;52.302;8.134;2023-04-16T12:22:39;11.77;;;7.70;;
47894;SDS011;33653;52.302;8.134;2023-04-16T12:25:14;12.45;;;8.05;;
47894;SDS011;33653;52.302;8.134;2023-04-16T12:30:21;10.35;;;7.35;;
47894;SDS011;33653;52.302;8.134;2023-04-16T12:33:14;11.48;;;8.00;;
47894;SDS011;33653;52.302;8.134;2023-04-16T12:35:44;13.52;;;8.25;;
47894;SDS011;33653;52.302;8.134;2023-04-16T12:38:12;12.05;;;8.75;;
47894;SDS011;33653;52.302;8.134;2023-04-16T12:40:42;11.65;;;7.55;;
47894;SDS011;33653;52.302;8.134;2023-04-16T12:43:11;12.13;;;7.88;;
47894;SDS011;33653;52.302;8.134;2023-04-16T12:45:42;13.68;;;8.93;;
47894;SDS011;33653;52.302;8.134;2023-04-16T12:48:11;15.27;;;8.35;;
47894;SDS011;33653;52.302;8.134;2023-04-16T12:50:39;15.57;;;8.48;;
47894;SDS011;33653;52.302;8.134;2023-04-16T12:53:10;14.25;;;7.80;;
47894;SDS011;33653;52.302;8.134;2023-04-16T12:55:38;12.80;;;8.77;;
47894;SDS011;33653;52.302;8.134;2023-04-16T12:58:07;13.57;;;8.27;;
47894;SDS011;33653;52.302;8.134;2023-04-16T13:00:38;15.27;;;8.45;;
47894;SDS011;33653;52.302;8.134;2023-04-16T13:03:06;11.85;;;8.32;;
47894;SDS011;33653;52.302;8.134;2023-04-16T13:05:35;12.65;;;7.97;;
47894;SDS011;33653;52.302;8.134;2023-04-16T13:10:57;12.48;;;7.88;;
47894;SDS011;33653;52.302;8.134;2023-04-16T13:13:25;12.25;;;7.90;;
47894;SDS011;33653;52.302;8.134;2023-04-16T13:15:54;13.30;;;8.10;;
47894;SDS011;33653;52.302;8.134;2023-04-16T13:18:22;13.93;;;8.80;;
47894;SDS011;33653;52.302;8.134;2023-04-16T13:20:52;13.68;;;8.60;;
47894;SDS011;33653;52.302;8.134;2023-04-16T13:23:22;13.48;;;8.38;;
47894;SDS011;33653;52.302;8.134;2023-04-16T13:25:50;9.68;;;7.40;;
47894;SDS011;33653;52.302;8.134;2023-04-16T13:28:19;11.57;;;7.80;;
47894;SDS011;33653;52.302;8.134;2023-04-16T13:30:47;12.20;;;7.60;;
47894;SDS011;33653;52.302;8.134;2023-04-16T13:33:15;10.75;;;7.45;;
47894;SDS011;33653;52.302;8.134;2023-04-16T13:35:43;10.82;;;7.30;;
47894;SDS011;33653;52.302;8.134;2023-04-16T13:38:12;11.45;;;7.32;;
47894;SDS011;33653;52.302;8.134;2023-04-16T13:40:40;11.10;;;7.05;;
47894;SDS011;33653;52.302;8.134;2023-04-16T13:43:08;17.67;;;7.82;;
47894;SDS011;33653;52.302;8.134;2023-04-16T13:45:37;12.93;;;8.02;;
47894;SDS011;33653;52.302;8.134;2023-04-16T13:48:05;10.90;;;6.78;;
47894;SDS011;33653;52.302;8.134;2023-04-16T13:50:33;11.18;;;7.72;;
47894;SDS011;33653;52.302;8.134;2023-04-16T13:53:01;11.20;;;7.72;;
47894;SDS011;33653;52.302;8.134;2023-04-16T13:55:30;11.68;;;7.28;;
47894;SDS011;33653;52.302;8.134;2023-04-16T13:57:58;9.27;;;6.90;;
47894;SDS011;33653;52.302;8.134;2023-04-16T14:00:26;12.75;;;6.45;;
47894;SDS011;33653;52.302;8.134;2023-04-16T14:02:54;12.85;;;7.82;;
47894;SDS011;33653;52.302;8.134;2023-04-16T14:05:23;12.80;;;7.93;;
47894;SDS011;33653;52.302;8.134;2023-04-16T14:07:53;12.20;;;7.65;;
47894;SDS011;33653;52.302;8.134;2023-04-16T14:10:21;8.95;;;6.45;;
47894;SDS011;33653;52.302;8.134;2023-04-16T14:12:49;11.40;;;7.47;;
47894;SDS011;33653;52.302;8.134;2023-04-16T14:15:18;12.75;;;7.78;;
47894;SDS011;33653;52.302;8.134;2023-04-16T14:17:47;10.43;;;7.00;;
47894;SDS011;33653;52.302;8.134;2023-04-16T14:20:15;10.43;;;7.43;;
47894;SDS011;33653;52.302;8.134;2023-04-16T14:22:45;9.30;;;6.60;;
47894;SDS011;33653;52.302;8.134;2023-04-16T14:25:13;12.50;;;7.53;;
47894;SDS011;33653;52.302;8.134;2023-04-16T14:27:42;12.75;;;6.82;;
47894;SDS011;33653;52.302;8.134;2023-04-16T14:30:11;9.52;;;6.72;;
47894;SDS011;33653;52.302;8.134;2023-04-16T14:32:39;12.90;;;7.45;;
47894;SDS011;33653;52.302;8.134;2023-04-16T14:35:08;10.52;;;7.18;;
47894;SDS011;33653;52.302;8.134;2023-04-16T14:37:36;9.95;;;6.75;;
47894;SDS011;33653;52.302;8.134;2023-04-16T14:40:06;11.18;;;7.70;;
47894;SDS011;33653;52.302;8.134;2023-04-16T14:42:35;12.75;;;8.05;;
47894;SDS011;33653;52.302;8.134;2023-04-16T14:45:05;11.30;;;7.47;;
47894;SDS011;33653;52.302;8.134;2023-04-16T14:47:34;10.23;;;6.93;;
47894;SDS011;33653;52.302;8.134;2023-04-16T14:50:04;13.35;;;8.38;;
47894;SDS011;33653;52.302;8.134;2023-04-16T14:52:33;29.92;;;17.17;;
47894;SDS011;33653;52.302;8.134;2023-04-16T14:55:01;12.70;;;8.40;;
47894;SDS011;33653;52.302;8.134;2023-04-16T14:57:31;16.85;;;9.40;;
47894;SDS011;33653;52.302;8.134;2023-04-16T14:59:59;10.40;;;8.20;;
47894;SDS011;33653;52.302;8.134;2023-04-16T15:02:28;11.30;;;7.40;;
47894;SDS011;33653;52.302;8.134;2023-04-16T15:04:56;14.32;;;8.25;;